Time;durP1;ratioP1;P1;durP2;ratioP2;P2;SDS_P1;SDS_P2;PMS_P1;PMS_P2;Temp;Humidity;BMP_temperature;BMP_pressure;BME280_temperature;BME280_humidity;BME280_pressure;Samples;Min_cycle;Max_cycle;Signal;HPM_P1;HPM_P2
2021/12/01 00:01:47;;;;;;;53.47;49.70;;;;;;;;;;4932438;29;20037;-74
2021/12/01 00:04:13;;;;;;;54.55;51.13;;;;;;;;;;4929559;29;20027;-75
2021/12/01 00:06:39;;;;;;;50.10;47.00;;;;;;;;;;4930565;29;20529;-73
2021/12/01 00:09:05;;;;;;;52.97;49.55;;;;;;;;;;4932582;29;20097;-73
2021/12/01 00:11:31;;;;;;;53.58;50.67;;;;;;;;;;4936673;29;20038;-75
2021/12/01 00:13:58;;;;;;;52.97;49.33;;;;;;;;;;4930604;29;20026;-74
2021/12/01 00:16:24;;;;;;;54.58;51.40;;;;;;;;;;4931366;29;20047;-73
2021/12/01 00:18:50;;;;;;;55.72;52.78;;;;;;;;;;4936273;29;20048;-74
2021/12/01 00:21:16;;;;;;;56.92;53.28;;;;;;;;;;4924519;29;20052;-73
2021/12/01 00:23:43;;;;;;;60.28;56.15;;;;;;;;;;4931879;29;20158;-73
2021/12/01 00:26:09;;;;;;;61.97;58.15;;;;;;;;;;4931745;29;20023;-73
2021/12/01 00:28:36;;;;;;;62.40;58.50;;;;;;;;;;4929945;29;20045;-73
2021/12/01 00:31:03;;;;;;;57.80;54.45;;;;;;;;;;4932406;29;20464;-75
2021/12/01 00:33:29;;;;;;;55.15;51.38;;;;;;;;;;4931449;29;20079;-75
2021/12/01 00:36:08;;;;;;;54.08;50.20;;;;;;;;;;4933866;29;20057;-75
2021/12/01 00:38:35;;;;;;;52.28;49.15;;;;;;;;;;4929880;29;20031;-74
2021/12/01 00:41:04;;;;;;;52.20;48.83;;;;;;;;;;4927446;29;20065;-74
2021/12/01 00:43:30;;;;;;;49.53;46.13;;;;;;;;;;4930656;29;20024;-75
2021/12/01 00:45:58;;;;;;;47.25;44.25;;;;;;;;;;4924340;29;20519;-74
2021/12/01 00:48:25;;;;;;;44.40;41.83;;;;;;;;;;4931515;29;20024;-75
2021/12/01 00:50:53;;;;;;;45.28;42.13;;;;;;;;;;4933562;29;20020;-73
2021/12/01 00:53:19;;;;;;;43.65;40.70;;;;;;;;;;4930294;29;20654;-75
2021/12/01 00:55:45;;;;;;;42.85;39.97;;;;;;;;;;4925643;29;20028;-74
2021/12/01 00:58:12;;;;;;;44.05;41.13;;;;;;;;;;4923096;29;20046;-77
2021/12/01 01:00:40;;;;;;;41.90;38.88;;;;;;;;;;4945899;28;20887;-75
2021/12/01 01:03:06;;;;;;;42.03;39.38;;;;;;;;;;4928190;29;20090;-74
2021/12/01 01:05:32;;;;;;;37.17;34.75;;;;;;;;;;4960329;28;20424;-74
2021/12/01 01:07:58;;;;;;;39.65;37.10;;;;;;;;;;4950336;28;20531;-73
2021/12/01 01:16:23;;;;;;;40.42;37.65;;;;;;;;;;4947346;29;20042;-74
2021/12/01 01:18:57;;;;;;;39.80;37.50;;;;;;;;;;4950509;28;20034;-74
2021/12/01 01:21:24;;;;;;;42.45;39.70;;;;;;;;;;4952213;28;20044;-74
2021/12/01 01:23:51;;;;;;;39.05;36.50;;;;;;;;;;4951164;28;20035;-74
2021/12/01 01:26:20;;;;;;;41.03;38.50;;;;;;;;;;4949447;28;20674;-74
2021/12/01 01:28:46;;;;;;;41.00;38.53;;;;;;;;;;4934086;29;20034;-74
2021/12/01 01:31:16;;;;;;;39.83;37.38;;;;;;;;;;4952544;28;20768;-74
2021/12/01 01:33:42;;;;;;;42.83;40.22;;;;;;;;;;4954862;29;20053;-74
2021/12/01 01:36:14;;;;;;;41.08;38.25;;;;;;;;;;4951085;29;20042;-76
2021/12/01 01:38:41;;;;;;;42.25;38.88;;;;;;;;;;4937088;29;20028;-74
2021/12/01 01:41:11;;;;;;;40.33;37.55;;;;;;;;;;4945404;28;20053;-74
2021/12/01 01:43:52;;;;;;;42.72;40.03;;;;;;;;;;4957744;28;20038;-77
2021/12/01 01:46:34;;;;;;;44.00;40.70;;;;;;;;;;4934158;29;20031;-75
2021/12/01 01:49:10;;;;;;;;;;;;;;;;;;4918088;29;20336;-76
2021/12/01 01:51:40;;;;;;;42.40;39.33;;;;;;;;;;4954732;28;20520;-75
2021/12/01 01:54:06;;;;;;;41.17;38.67;;;;;;;;;;4943855;29;20106;-74
2021/12/01 01:56:32;;;;;;;39.38;37.10;;;;;;;;;;4943359;29;20027;-75
2021/12/01 01:58:58;;;;;;;40.78;38.05;;;;;;;;;;4946871;29;20042;-75
2021/12/01 02:04:11;;;;;;;43.50;40.72;;;;;;;;;;4950323;28;20042;-75
2021/12/01 02:06:37;;;;;;;42.75;40.35;;;;;;;;;;4940434;28;20140;-73
2021/12/01 02:09:04;;;;;;;44.05;41.03;;;;;;;;;;4956944;28;20079;-74
2021/12/01 02:11:30;;;;;;;44.08;41.08;;;;;;;;;;4953386;28;20026;-73
2021/12/01 02:13:58;;;;;;;43.42;40.47;;;;;;;;;;4952391;29;20027;-74
2021/12/01 02:16:25;;;;;;;43.65;41.15;;;;;;;;;;4955103;28;20027;-74
2021/12/01 02:18:51;;;;;;;42.92;39.92;;;;;;;;;;4960698;28;20042;-74
2021/12/01 02:21:24;;;;;;;44.95;41.33;;;;;;;;;;4949896;29;20031;-74
2021/12/01 02:23:55;;;;;;;44.38;41.38;;;;;;;;;;4950994;28;20158;-73
2021/12/01 02:26:22;;;;;;;44.00;41.30;;;;;;;;;;4941251;29;20035;-75
2021/12/01 02:28:50;;;;;;;43.35;40.33;;;;;;;;;;4952025;28;20078;-74
2021/12/01 02:31:17;;;;;;;42.10;39.05;;;;;;;;;;4954378;28;20114;-74
2021/12/01 02:33:44;;;;;;;42.03;39.45;;;;;;;;;;4950882;28;20019;-73
2021/12/01 02:36:11;;;;;;;42.47;39.58;;;;;;;;;;4935224;29;20034;-74
2021/12/01 02:38:40;;;;;;;39.40;37.28;;;;;;;;;;4952934;28;20043;-75
2021/12/01 02:41:06;;;;;;;43.50;40.28;;;;;;;;;;4953833;28;20115;-73
2021/12/01 02:43:33;;;;;;;39.85;37.80;;;;;;;;;;4942983;28;20053;-72
2021/12/01 02:45:59;;;;;;;41.25;38.95;;;;;;;;;;4954428;28;20156;-72
2021/12/01 02:48:25;;;;;;;41.92;39.42;;;;;;;;;;4960256;28;20507;-73
2021/12/01 02:50:53;;;;;;;42.85;39.85;;;;;;;;;;4954466;28;20493;-73
2021/12/01 02:53:24;;;;;;;42.38;40.05;;;;;;;;;;4951365;28;20034;-74
2021/12/01 02:55:58;;;;;;;44.97;42.33;;;;;;;;;;4953997;29;20035;-74
2021/12/01 02:58:25;;;;;;;46.65;44.05;;;;;;;;;;4952679;28;20059;-74
2021/12/01 03:00:54;;;;;;;47.17;44.33;;;;;;;;;;4947958;28;20051;-74
2021/12/01 03:03:24;;;;;;;45.45;42.88;;;;;;;;;;4954480;28;20050;-72
2021/12/01 03:05:51;;;;;;;46.70;44.10;;;;;;;;;;4953164;28;20161;-74
2021/12/01 03:08:18;;;;;;;45.60;43.08;;;;;;;;;;4952178;28;20046;-74
2021/12/01 03:10:47;;;;;;;46.30;43.90;;;;;;;;;;4938636;29;20031;-74
2021/12/01 03:13:14;;;;;;;48.78;46.38;;;;;;;;;;4952367;28;20027;-74
2021/12/01 03:15:41;;;;;;;48.20;45.88;;;;;;;;;;4953602;28;20028;-74
2021/12/01 03:18:07;;;;;;;51.20;47.97;;;;;;;;;;4954507;28;20061;-74
2021/12/01 03:20:34;;;;;;;50.30;47.40;;;;;;;;;;4953398;28;20072;-74
2021/12/01 03:23:00;;;;;;;47.97;45.28;;;;;;;;;;4946852;29;20046;-74
2021/12/01 03:25:27;;;;;;;53.45;50.33;;;;;;;;;;4946114;28;20031;-75
2021/12/01 03:27:53;;;;;;;54.13;51.15;;;;;;;;;;4936969;29;20075;-74
2021/12/01 03:30:22;;;;;;;56.47;53.05;;;;;;;;;;4953267;28;20502;-80
2021/12/01 03:32:49;;;;;;;57.75;54.53;;;;;;;;;;4937477;29;20031;-73
2021/12/01 03:35:16;;;;;;;60.78;57.20;;;;;;;;;;4960877;28;20099;-74
2021/12/01 03:37:44;;;;;;;63.13;59.03;;;;;;;;;;4951509;28;20037;-75
2021/12/01 03:40:12;;;;;;;61.30;57.38;;;;;;;;;;4955950;28;20035;-76
2021/12/01 03:42:39;;;;;;;63.42;59.60;;;;;;;;;;4933266;28;20055;-74
2021/12/01 03:45:05;;;;;;;62.88;59.53;;;;;;;;;;4950753;28;20159;-75
2021/12/01 03:47:31;;;;;;;67.28;63.67;;;;;;;;;;4951867;29;20024;-74
2021/12/01 03:49:57;;;;;;;69.57;65.45;;;;;;;;;;4951328;29;20019;-73
2021/12/01 03:52:25;;;;;;;70.13;66.15;;;;;;;;;;4952929;28;20136;-74
2021/12/01 03:54:52;;;;;;;65.93;62.58;;;;;;;;;;4950443;28;20510;-76
2021/12/01 03:57:19;;;;;;;64.05;60.50;;;;;;;;;;4958845;28;20035;-74
2021/12/01 03:59:45;;;;;;;68.15;64.38;;;;;;;;;;4959540;28;20051;-74
2021/12/01 04:02:19;;;;;;;67.15;63.63;;;;;;;;;;4948070;28;20027;-75
2021/12/01 04:04:46;;;;;;;68.25;64.65;;;;;;;;;;4936496;29;20046;-75
2021/12/01 04:07:12;;;;;;;65.75;62.30;;;;;;;;;;4949380;28;20111;-74
2021/12/01 04:09:39;;;;;;;67.30;63.95;;;;;;;;;;4950932;29;20020;-75
2021/12/01 04:12:08;;;;;;;67.85;64.10;;;;;;;;;;4951101;28;20046;-74
2021/12/01 04:14:34;;;;;;;66.97;63.08;;;;;;;;;;4952456;29;20102;-75
2021/12/01 04:17:00;;;;;;;66.45;62.95;;;;;;;;;;4940568;29;20127;-76
2021/12/01 04:19:36;;;;;;;63.13;59.30;;;;;;;;;;4934902;29;20043;-76
2021/12/01 04:22:03;;;;;;;64.82;61.30;;;;;;;;;;4952744;29;20031;-74
2021/12/01 04:24:31;;;;;;;65.70;62.20;;;;;;;;;;4952809;28;20059;-75
2021/12/01 04:26:58;;;;;;;69.22;65.15;;;;;;;;;;4919701;29;20192;-75
2021/12/01 04:29:26;;;;;;;63.70;60.40;;;;;;;;;;4950985;28;20023;-75
2021/12/01 04:31:52;;;;;;;66.47;62.67;;;;;;;;;;4954940;28;20023;-74
2021/12/01 04:34:22;;;;;;;65.82;62.13;;;;;;;;;;4948534;28;20042;-74
2021/12/01 04:36:50;;;;;;;65.93;62.20;;;;;;;;;;4935798;29;20056;-75
2021/12/01 04:39:19;;;;;;;58.67;55.08;;;;;;;;;;4945650;29;20050;-74
2021/12/01 04:42:13;;;;;;;51.95;48.90;;;;;;;;;;4945859;29;20110;-74
2021/12/01 04:44:43;;;;;;;53.33;50.58;;;;;;;;;;4951540;28;20023;-75
2021/12/01 04:47:26;;;;;;;51.67;48.90;;;;;;;;;;4952767;28;20045;-76
2021/12/01 04:49:53;;;;;;;52.38;49.67;;;;;;;;;;4935508;29;20023;-75
2021/12/01 04:52:20;;;;;;;50.25;46.95;;;;;;;;;;4950672;28;20032;-76
2021/12/01 04:54:46;;;;;;;45.45;42.67;;;;;;;;;;4953890;28;20057;-75
2021/12/01 04:57:13;;;;;;;45.25;42.75;;;;;;;;;;4962641;28;20045;-74
2021/12/01 04:59:47;;;;;;;42.28;39.97;;;;;;;;;;4944911;29;20162;-74
2021/12/01 05:02:13;;;;;;;43.47;40.80;;;;;;;;;;4947336;29;20046;-75
2021/12/01 05:04:41;;;;;;;44.97;42.58;;;;;;;;;;4943062;29;20102;-75
2021/12/01 05:07:17;;;;;;;43.58;41.33;;;;;;;;;;4950212;28;20035;-73
2021/12/01 05:10:04;;;;;;;43.97;41.47;;;;;;;;;;4954310;28;20063;-74
2021/12/01 05:12:31;;;;;;;43.88;41.28;;;;;;;;;;4956697;28;20037;-74
2021/12/01 05:14:57;;;;;;;42.83;40.38;;;;;;;;;;4944549;29;20095;-74
2021/12/01 05:17:25;;;;;;;42.25;39.85;;;;;;;;;;4953347;28;20531;-76
2021/12/01 05:19:53;;;;;;;42.83;40.53;;;;;;;;;;4954347;28;20051;-73
2021/12/01 05:22:25;;;;;;;43.33;40.15;;;;;;;;;;4950727;28;20508;-73
2021/12/01 05:24:53;;;;;;;43.20;40.83;;;;;;;;;;4933720;29;20031;-74
2021/12/01 05:27:19;;;;;;;43.22;40.65;;;;;;;;;;4937969;29;20038;-75
2021/12/01 05:29:49;;;;;;;43.55;40.95;;;;;;;;;;4947236;28;20034;-74
2021/12/01 05:35:10;;;;;;;44.17;41.58;;;;;;;;;;4955425;29;20055;-77
2021/12/01 05:37:37;;;;;;;42.97;40.00;;;;;;;;;;4954418;28;20114;-74
2021/12/01 05:40:25;;;;;;;40.47;37.70;;;;;;;;;;4939253;29;20038;-75
2021/12/01 05:42:57;;;;;;;40.75;38.08;;;;;;;;;;4954465;28;20065;-75
2021/12/01 05:45:25;;;;;;;35.72;33.45;;;;;;;;;;4934602;29;20084;-74
2021/12/01 05:47:55;;;;;;;40.78;38.38;;;;;;;;;;4936727;29;20051;-74
2021/12/01 05:50:21;;;;;;;41.78;39.15;;;;;;;;;;4940825;28;20041;-76
2021/12/01 05:52:47;;;;;;;46.13;42.83;;;;;;;;;;4955041;28;20027;-75
2021/12/01 05:55:19;;;;;;;44.63;42.00;;;;;;;;;;4941828;29;20041;-74
2021/12/01 05:57:45;;;;;;;45.30;42.60;;;;;;;;;;4952661;28;20327;-74
2021/12/01 06:00:13;;;;;;;42.53;39.72;;;;;;;;;;4918388;29;20085;-75
2021/12/01 06:03:06;;;;;;;43.83;40.47;;;;;;;;;;4931669;29;20050;-75
2021/12/01 06:05:46;;;;;;;40.67;37.60;;;;;;;;;;4933671;29;20058;-75
2021/12/01 06:08:14;;;;;;;40.92;38.33;;;;;;;;;;4926599;29;20137;-75
2021/12/01 06:10:42;;;;;;;45.55;42.25;;;;;;;;;;4943961;29;20527;-74
2021/12/01 06:13:11;;;;;;;50.17;46.75;;;;;;;;;;4934980;29;20042;-75
2021/12/01 06:15:44;;;;;;;46.78;42.83;;;;;;;;;;4932175;29;20087;-75
2021/12/01 06:18:10;;;;;;;43.45;40.47;;;;;;;;;;4931186;29;20047;-75
2021/12/01 06:20:38;;;;;;;49.10;45.63;;;;;;;;;;4934299;29;20046;-77
2021/12/01 06:23:04;;;;;;;48.30;44.83;;;;;;;;;;4914705;29;20063;-76
2021/12/01 06:25:30;;;;;;;43.50;40.03;;;;;;;;;;4934171;29;20063;-76
2021/12/01 06:28:13;;;;;;;48.00;44.03;;;;;;;;;;4930571;29;20023;-74
2021/12/01 06:30:39;;;;;;;50.45;46.78;;;;;;;;;;4929910;29;20316;-75
2021/12/01 06:33:06;;;;;;;51.55;46.63;;;;;;;;;;4933645;29;20041;-74
2021/12/01 06:35:38;;;;;;;48.90;45.45;;;;;;;;;;4933244;29;20574;-75
2021/12/01 06:38:04;;;;;;;;;;;;;;;;;;4934378;29;20520;-74
2021/12/01 06:40:51;;;;;;;46.63;42.65;;;;;;;;;;4934452;29;20001;-76
2021/12/01 06:43:19;;;;;;;48.78;45.03;;;;;;;;;;4931313;29;20050;-75
2021/12/01 06:45:46;;;;;;;50.17;46.15;;;;;;;;;;4927117;29;20112;-74
2021/12/01 06:48:12;;;;;;;50.03;45.58;;;;;;;;;;4933340;29;20174;-75
2021/12/01 06:50:47;;;;;;;50.92;45.83;;;;;;;;;;4936719;29;20042;-76
2021/12/01 06:53:15;;;;;;;47.97;44.13;;;;;;;;;;4940355;29;20053;-74
2021/12/01 06:55:41;;;;;;;53.42;49.03;;;;;;;;;;4932833;29;20055;-74
2021/12/01 06:58:09;;;;;;;51.55;46.80;;;;;;;;;;4933190;29;20563;-74
2021/12/01 07:00:38;;;;;;;52.22;47.33;;;;;;;;;;4915577;29;20261;-75
2021/12/01 07:03:04;;;;;;;51.28;46.25;;;;;;;;;;4934046;29;20049;-74
2021/12/01 07:05:33;;;;;;;49.00;43.85;;;;;;;;;;4935382;29;20036;-75
2021/12/01 07:08:06;;;;;;;52.00;46.70;;;;;;;;;;4930293;29;20143;-74
2021/12/01 07:10:32;;;;;;;53.75;47.75;;;;;;;;;;4932265;29;20053;-74
2021/12/01 07:12:59;;;;;;;57.90;53.08;;;;;;;;;;4931127;29;20035;-79
2021/12/01 07:15:26;;;;;;;60.47;54.38;;;;;;;;;;5030394;23;20115;-74
2021/12/01 07:17:54;;;;;;;61.83;56.08;;;;;;;;;;4935648;29;20295;-75
2021/12/01 07:20:21;;;;;;;60.78;55.15;;;;;;;;;;4932049;29;20054;-73
2021/12/01 07:22:49;;;;;;;60.65;55.10;;;;;;;;;;4946050;28;20035;-74
2021/12/01 07:25:15;;;;;;;72.75;67.03;;;;;;;;;;4932050;29;20043;-74
2021/12/01 07:27:41;;;;;;;79.45;72.95;;;;;;;;;;4930916;29;20038;-73
2021/12/01 07:30:08;;;;;;;79.22;74.32;;;;;;;;;;4931434;29;20031;-77
2021/12/01 07:32:41;;;;;;;80.20;75.45;;;;;;;;;;4932281;29;20054;-74
2021/12/01 07:35:07;;;;;;;85.40;79.78;;;;;;;;;;4932269;29;20391;-75
2021/12/01 07:37:38;;;;;;;84.10;78.25;;;;;;;;;;4942365;28;20027;-74
2021/12/01 07:40:05;;;;;;;84.63;79.20;;;;;;;;;;4932160;29;20034;-73
2021/12/01 07:42:33;;;;;;;80.70;75.22;;;;;;;;;;4931324;29;20058;-74
2021/12/01 07:45:04;;;;;;;83.40;77.70;;;;;;;;;;4928907;29;20064;-73
2021/12/01 07:47:32;;;;;;;80.00;75.03;;;;;;;;;;4949314;28;20511;-73
2021/12/01 07:49:58;;;;;;;100.05;93.32;;;;;;;;;;4931357;29;20046;-73
2021/12/01 07:52:24;;;;;;;89.93;84.00;;;;;;;;;;4932543;29;20032;-73
2021/12/01 07:54:50;;;;;;;81.70;76.18;;;;;;;;;;4932519;29;20106;-72
2021/12/01 07:57:17;;;;;;;82.90;77.63;;;;;;;;;;4931081;29;20154;-74
2021/12/01 07:59:43;;;;;;;87.20;80.95;;;;;;;;;;4928740;29;20028;-72
2021/12/01 08:02:10;;;;;;;82.97;77.45;;;;;;;;;;4931788;29;20028;-73
2021/12/01 08:04:36;;;;;;;80.63;74.85;;;;;;;;;;4931677;29;20049;-73
2021/12/01 08:07:03;;;;;;;85.00;78.38;;;;;;;;;;4948939;28;20117;-72
2021/12/01 08:09:30;;;;;;;83.53;77.47;;;;;;;;;;4929727;29;20032;-72
2021/12/01 08:11:56;;;;;;;87.75;81.78;;;;;;;;;;4938748;29;20053;-73
2021/12/01 08:14:23;;;;;;;85.88;79.22;;;;;;;;;;4935033;28;20058;-73
2021/12/01 08:16:49;;;;;;;82.75;77.00;;;;;;;;;;4949036;28;20041;-73
2021/12/01 08:19:15;;;;;;;79.28;73.90;;;;;;;;;;4951813;28;20031;-73
2021/12/01 08:21:46;;;;;;;85.88;79.13;;;;;;;;;;4952679;28;20030;-73
2021/12/01 08:24:12;;;;;;;73.28;68.15;;;;;;;;;;4948366;28;20032;-74
2021/12/01 08:26:39;;;;;;;77.32;72.40;;;;;;;;;;4955278;28;20159;-71
2021/12/01 08:29:05;;;;;;;78.00;72.90;;;;;;;;;;4948217;28;20023;-73
2021/12/01 08:31:31;;;;;;;76.53;70.45;;;;;;;;;;4951124;29;20041;-74
2021/12/01 08:33:57;;;;;;;71.97;67.57;;;;;;;;;;4949612;29;20023;-73
2021/12/01 08:36:23;;;;;;;77.43;72.07;;;;;;;;;;4959876;28;20035;-74
2021/12/01 08:38:50;;;;;;;83.65;78.18;;;;;;;;;;4947173;28;20028;-74
2021/12/01 08:41:16;;;;;;;82.38;77.13;;;;;;;;;;4957117;28;20034;-71
2021/12/01 08:43:42;;;;;;;75.03;69.57;;;;;;;;;;4954623;28;20037;-72
2021/12/01 08:46:09;;;;;;;76.57;69.88;;;;;;;;;;4954525;29;20409;-74
2021/12/01 08:48:35;;;;;;;65.70;61.33;;;;;;;;;;4952600;29;20061;-72
2021/12/01 08:51:02;;;;;;;76.20;71.53;;;;;;;;;;4960585;28;20408;-72
2021/12/01 08:53:30;;;;;;;69.05;64.47;;;;;;;;;;4954908;29;20410;-72
2021/12/01 08:55:57;;;;;;;65.00;60.85;;;;;;;;;;4955520;28;20398;-72
2021/12/01 08:58:23;;;;;;;66.47;62.00;;;;;;;;;;4949939;29;20027;-72
2021/12/01 09:00:49;;;;;;;69.63;64.28;;;;;;;;;;4938532;29;20062;-72
2021/12/01 09:03:17;;;;;;;66.78;62.50;;;;;;;;;;4950107;28;20114;-73
2021/12/01 09:05:44;;;;;;;72.13;67.90;;;;;;;;;;4953808;29;20042;-72
2021/12/01 09:08:10;;;;;;;76.82;72.38;;;;;;;;;;4952034;29;20102;-73
2021/12/01 09:10:36;;;;;;;73.18;68.47;;;;;;;;;;4942968;29;20039;-73
2021/12/01 09:13:04;;;;;;;70.35;65.95;;;;;;;;;;4953397;29;20057;-72
2021/12/01 09:15:33;;;;;;;69.72;65.35;;;;;;;;;;4953680;29;20169;-74
2021/12/01 09:17:59;;;;;;;80.15;75.60;;;;;;;;;;4950963;28;20096;-72
2021/12/01 09:20:26;;;;;;;71.63;66.75;;;;;;;;;;4953421;29;20046;-73
2021/12/01 09:22:52;;;;;;;68.57;64.32;;;;;;;;;;4938328;29;20333;-72
2021/12/01 09:25:18;;;;;;;71.00;65.72;;;;;;;;;;4954629;29;20068;-72
2021/12/01 09:27:45;;;;;;;67.80;63.33;;;;;;;;;;4944627;28;20086;-72
2021/12/01 09:30:13;;;;;;;70.28;66.15;;;;;;;;;;4949757;28;20031;-73
2021/12/01 09:32:39;;;;;;;71.95;65.70;;;;;;;;;;4953443;29;20054;-72
2021/12/01 09:35:06;;;;;;;69.63;65.43;;;;;;;;;;4952161;29;20016;-71
2021/12/01 09:37:32;;;;;;;70.55;66.30;;;;;;;;;;4949994;29;20525;-71
2021/12/01 09:39:58;;;;;;;65.28;61.00;;;;;;;;;;4951954;29;20386;-71
2021/12/01 09:42:24;;;;;;;67.85;63.22;;;;;;;;;;4952946;29;20405;-72
2021/12/01 09:44:51;;;;;;;64.45;60.35;;;;;;;;;;4954018;29;20090;-72
2021/12/01 09:47:20;;;;;;;66.50;61.28;;;;;;;;;;4961051;28;20054;-72
2021/12/01 09:49:47;;;;;;;68.35;63.58;;;;;;;;;;4941583;28;20133;-72
2021/12/01 09:52:13;;;;;;;71.00;65.95;;;;;;;;;;4949659;28;20023;-71
2021/12/01 09:54:40;;;;;;;70.40;66.25;;;;;;;;;;4950955;29;20591;-72
2021/12/01 09:57:07;;;;;;;72.22;67.82;;;;;;;;;;4952385;29;20076;-72
2021/12/01 09:59:33;;;;;;;73.68;68.57;;;;;;;;;;4949436;29;20045;-73
2021/12/01 10:02:00;;;;;;;68.55;63.88;;;;;;;;;;4960133;28;20129;-72
2021/12/01 10:04:28;;;;;;;74.70;70.07;;;;;;;;;;4951594;28;20166;-74
2021/12/01 10:07:11;;;;;;;73.38;68.47;;;;;;;;;;4956298;28;20035;-72
2021/12/01 10:09:42;;;;;;;71.82;66.18;;;;;;;;;;4950546;29;20030;-72
2021/12/01 10:12:08;;;;;;;77.72;72.53;;;;;;;;;;4952234;28;20058;-73
2021/12/01 10:14:34;;;;;;;72.28;67.55;;;;;;;;;;4944972;29;20533;-73
2021/12/01 10:17:00;;;;;;;74.05;69.97;;;;;;;;;;4953841;28;20501;-73
2021/12/01 10:19:28;;;;;;;70.95;66.63;;;;;;;;;;4949794;28;20494;-73
2021/12/01 10:21:54;;;;;;;69.75;65.22;;;;;;;;;;4935716;29;20046;-73
2021/12/01 10:24:28;;;;;;;69.00;64.70;;;;;;;;;;4952081;29;20387;-72
2021/12/01 10:27:00;;;;;;;72.10;67.50;;;;;;;;;;4952567;29;20510;-73
2021/12/01 10:29:35;;;;;;;70.63;65.75;;;;;;;;;;4938428;29;20038;-73
2021/12/01 10:32:07;;;;;;;76.63;72.13;;;;;;;;;;4954203;28;20037;-73
2021/12/01 10:34:40;;;;;;;80.25;75.63;;;;;;;;;;4947044;28;20034;-72
2021/12/01 10:37:14;;;;;;;73.20;69.07;;;;;;;;;;4958602;28;20045;-74
2021/12/01 10:39:45;;;;;;;64.88;61.13;;;;;;;;;;4949942;29;20042;-73
2021/12/01 10:42:17;;;;;;;69.40;64.97;;;;;;;;;;4931206;29;20516;-73
2021/12/01 10:44:57;;;;;;;73.03;68.95;;;;;;;;;;4951490;29;20173;-74
2021/12/01 10:47:23;;;;;;;71.90;66.80;;;;;;;;;;4949740;29;20062;-73
2021/12/01 10:49:49;;;;;;;69.85;65.45;;;;;;;;;;4950924;29;20061;-73
2021/12/01 10:52:27;;;;;;;69.20;64.70;;;;;;;;;;4952532;28;20041;-73
2021/12/01 10:55:11;;;;;;;68.43;63.80;;;;;;;;;;4952510;29;20049;-73
2021/12/01 10:57:39;;;;;;;69.38;64.63;;;;;;;;;;4948468;29;20027;-73
2021/12/01 11:00:11;;;;;;;69.35;64.18;;;;;;;;;;4949816;28;20029;-73
2021/12/01 11:02:37;;;;;;;71.32;66.75;;;;;;;;;;4935322;29;20098;-73
2021/12/01 11:05:03;;;;;;;70.68;65.93;;;;;;;;;;4953509;28;20023;-73
2021/12/01 11:07:31;;;;;;;71.45;66.75;;;;;;;;;;4951819;28;20445;-73
2021/12/01 11:10:09;;;;;;;75.10;70.82;;;;;;;;;;4951524;28;20028;-74
2021/12/01 11:12:35;;;;;;;69.18;64.47;;;;;;;;;;4951606;29;20042;-74
2021/12/01 11:15:18;;;;;;;73.47;68.65;;;;;;;;;;4957669;28;20082;-74
2021/12/01 11:17:44;;;;;;;74.75;69.90;;;;;;;;;;4932030;29;20282;-73
2021/12/01 11:20:11;;;;;;;78.90;73.80;;;;;;;;;;4952620;28;20040;-73
2021/12/01 11:22:37;;;;;;;70.38;65.72;;;;;;;;;;4959539;28;20324;-74
2021/12/01 11:25:24;;;;;;;71.03;66.43;;;;;;;;;;4952845;29;20042;-73
2021/12/01 11:27:50;;;;;;;68.03;63.17;;;;;;;;;;4942300;28;20095;-73
2021/12/01 11:30:17;;;;;;;66.90;61.97;;;;;;;;;;4952690;29;20045;-74
2021/12/01 11:32:43;;;;;;;64.25;59.75;;;;;;;;;;4954589;28;20029;-73
2021/12/01 11:35:10;;;;;;;65.22;61.10;;;;;;;;;;4948511;29;20039;-73
2021/12/01 11:37:36;;;;;;;63.85;59.58;;;;;;;;;;4949374;29;20044;-73
2021/12/01 11:40:03;;;;;;;62.78;58.45;;;;;;;;;;4951016;29;20393;-74
2021/12/01 11:42:29;;;;;;;61.03;57.08;;;;;;;;;;4950865;29;20074;-73
2021/12/01 11:44:55;;;;;;;67.80;62.30;;;;;;;;;;4964697;28;20113;-74
2021/12/01 11:47:22;;;;;;;63.90;59.28;;;;;;;;;;4950469;29;20441;-72
2021/12/01 11:49:50;;;;;;;68.10;63.05;;;;;;;;;;4944341;29;20023;-74
2021/12/01 11:52:16;;;;;;;67.38;62.40;;;;;;;;;;4951815;29;20048;-74
2021/12/01 11:54:43;;;;;;;66.93;62.08;;;;;;;;;;4951837;28;20041;-74
2021/12/01 11:57:10;;;;;;;73.15;67.68;;;;;;;;;;4951053;28;20023;-74
2021/12/01 11:59:37;;;;;;;69.03;64.50;;;;;;;;;;4952581;28;20034;-73
2021/12/01 12:02:07;;;;;;;72.63;67.75;;;;;;;;;;4951458;29;20030;-74
2021/12/01 12:04:39;;;;;;;66.65;62.15;;;;;;;;;;4948675;28;20062;-74
2021/12/01 12:07:25;;;;;;;71.95;66.32;;;;;;;;;;4955112;28;20486;-73
2021/12/01 12:10:11;;;;;;;71.32;64.90;;;;;;;;;;4935391;28;20119;-74
2021/12/01 12:12:48;;;;;;;66.93;61.13;;;;;;;;;;4950356;28;20037;-74
2021/12/01 12:15:33;;;;;;;65.90;60.55;;;;;;;;;;4962226;28;20085;-73
2021/12/01 12:17:59;;;;;;;73.32;68.22;;;;;;;;;;4947649;28;20046;-74
2021/12/01 12:20:39;;;;;;;70.85;66.18;;;;;;;;;;4952398;28;20078;-73
2021/12/01 12:23:09;;;;;;;75.15;70.07;;;;;;;;;;4952564;28;20383;-74
2021/12/01 12:25:39;;;;;;;70.65;65.70;;;;;;;;;;4950873;28;20057;-73
2021/12/01 12:28:22;;;;;;;71.13;65.70;;;;;;;;;;4958211;28;20526;-74
2021/12/01 12:30:48;;;;;;;71.07;65.40;;;;;;;;;;4954704;28;20046;-73
2021/12/01 12:33:25;;;;;;;75.57;70.75;;;;;;;;;;4954826;28;20085;-73
2021/12/01 12:35:52;;;;;;;73.43;68.15;;;;;;;;;;4948206;28;20399;-73
2021/12/01 12:38:18;;;;;;;72.75;67.38;;;;;;;;;;4949864;28;20043;-74
2021/12/01 12:40:45;;;;;;;73.32;67.20;;;;;;;;;;4951787;29;20086;-73
2021/12/01 12:43:16;;;;;;;70.28;65.07;;;;;;;;;;4956836;28;20035;-75
2021/12/01 12:46:01;;;;;;;70.93;65.72;;;;;;;;;;4947497;29;20027;-73
2021/12/01 12:48:28;;;;;;;70.20;65.00;;;;;;;;;;4947040;29;20112;-73
2021/12/01 12:51:07;;;;;;;72.53;67.32;;;;;;;;;;4944997;29;20038;-72
2021/12/01 12:53:33;;;;;;;75.97;70.25;;;;;;;;;;4947763;28;20520;-72
2021/12/01 12:55:59;;;;;;;80.18;73.80;;;;;;;;;;4951099;28;20430;-72
2021/12/01 12:58:34;;;;;;;75.80;71.22;;;;;;;;;;4929731;29;20038;-73
2021/12/01 13:01:01;;;;;;;83.90;78.20;;;;;;;;;;4950501;28;20074;-72
2021/12/01 13:03:28;;;;;;;83.43;77.20;;;;;;;;;;4948633;28;20611;-73
2021/12/01 13:05:56;;;;;;;84.47;78.35;;;;;;;;;;4928075;29;20066;-72
2021/12/01 13:08:33;;;;;;;75.18;69.55;;;;;;;;;;4938675;28;20028;-73
2021/12/01 13:11:01;;;;;;;76.45;70.55;;;;;;;;;;4950667;28;20512;-71
2021/12/01 13:13:32;;;;;;;79.10;73.63;;;;;;;;;;4950275;28;20019;-72
2021/12/01 13:15:58;;;;;;;72.10;66.60;;;;;;;;;;4950244;29;20118;-73
2021/12/01 13:18:25;;;;;;;69.72;64.82;;;;;;;;;;4947398;29;20063;-72
2021/12/01 13:20:51;;;;;;;71.45;65.43;;;;;;;;;;4954227;28;20107;-72
2021/12/01 13:23:22;;;;;;;73.25;67.75;;;;;;;;;;4951923;28;20049;-71
2021/12/01 13:25:58;;;;;;;73.88;68.85;;;;;;;;;;4951037;29;20032;-73
2021/12/01 13:28:32;;;;;;;78.30;72.72;;;;;;;;;;4950102;28;20045;-73
2021/12/01 13:31:00;;;;;;;77.10;72.28;;;;;;;;;;4955243;28;20038;-73
2021/12/01 13:33:26;;;;;;;75.45;70.22;;;;;;;;;;4954395;28;20407;-73
2021/12/01 13:35:52;;;;;;;76.78;71.13;;;;;;;;;;4959947;28;20069;-72
2021/12/01 13:38:28;;;;;;;80.68;75.22;;;;;;;;;;4951400;29;20579;-73
2021/12/01 13:40:55;;;;;;;84.53;78.15;;;;;;;;;;4958502;28;20027;-73
2021/12/01 13:43:21;;;;;;;76.93;71.30;;;;;;;;;;4952704;29;20032;-73
2021/12/01 13:45:54;;;;;;;77.43;71.40;;;;;;;;;;4955632;28;20082;-73
2021/12/01 13:48:20;;;;;;;78.97;73.15;;;;;;;;;;4958600;28;20041;-72
2021/12/01 13:50:47;;;;;;;78.53;73.47;;;;;;;;;;4956449;28;20030;-73
2021/12/01 13:53:13;;;;;;;77.80;71.93;;;;;;;;;;4950764;28;20053;-72
2021/12/01 13:55:41;;;;;;;71.00;65.70;;;;;;;;;;4954438;28;20319;-71
2021/12/01 13:58:09;;;;;;;74.70;70.07;;;;;;;;;;4951628;28;20479;-72
2021/12/01 14:00:40;;;;;;;72.00;67.05;;;;;;;;;;4952119;28;20037;-71
2021/12/01 14:03:11;;;;;;;65.30;61.70;;;;;;;;;;4953346;28;20046;-73
2021/12/01 14:05:39;;;;;;;72.30;67.30;;;;;;;;;;4952910;28;20502;-70
2021/12/01 14:08:05;;;;;;;75.57;69.57;;;;;;;;;;4951317;28;20031;-72
2021/12/01 14:10:35;;;;;;;75.30;69.05;;;;;;;;;;4953769;28;20096;-71
2021/12/01 14:13:02;;;;;;;76.78;72.03;;;;;;;;;;4964442;28;20038;-72
2021/12/01 14:15:29;;;;;;;80.22;74.95;;;;;;;;;;4953276;29;20210;-71
2021/12/01 14:17:55;;;;;;;75.65;70.45;;;;;;;;;;4947200;29;20031;-72
2021/12/01 14:20:25;;;;;;;75.70;70.90;;;;;;;;;;4956234;28;20046;-73
2021/12/01 14:22:52;;;;;;;75.28;70.55;;;;;;;;;;4953337;29;20046;-72
2021/12/01 14:25:20;;;;;;;81.30;75.47;;;;;;;;;;4953134;28;20447;-71
2021/12/01 14:27:47;;;;;;;79.25;74.03;;;;;;;;;;4949661;29;20085;-72
2021/12/01 14:30:15;;;;;;;76.82;72.00;;;;;;;;;;4953287;29;20067;-72
2021/12/01 14:32:42;;;;;;;68.80;64.25;;;;;;;;;;4944607;28;20114;-72
2021/12/01 14:35:08;;;;;;;69.82;64.88;;;;;;;;;;4951839;28;20049;-71
2021/12/01 14:37:35;;;;;;;64.53;59.95;;;;;;;;;;4951974;29;20034;-71
2021/12/01 14:40:09;;;;;;;65.88;61.30;;;;;;;;;;4950449;28;20428;-72